Terminal Aerodrome Forecast
Issued by NWS

Home | Current Version | Previous Version | Text Only | Print | Product List | Glossary On
Versions: 1 2 3 4 5 6 7 8 9 10 11 12 13 14
322
FTUS43 KJKL 301739
TAFSME
TAF
KSME 301739Z 3018/0118 23008KT P6SM SCT015 OVC050
      TEMPO 3018/3020 BKN025
     FM302100 26008KT P6SM SCT020 OVC035
     FM010000 27007KT P6SM FEW025 SCT090=

USA.gov is the U.S. government's official web portal to all federal, state and local government web resources and services.